Home > Products > Valid Products > TAF

000
FTUS43 KUNR 260500
TAFGCC
TAF
KGCC 260520Z 2606/2706 17016KT P6SM BKN150
     FM260800 22015KT P6SM SCT150
     FM261500 30015KT P6SM BKN150=



000
FTUS43 KUNR 260500
TAFRAP
TAF
KRAP 260520Z 2606/2706 15010KT P6SM SCT150
     FM261500 34015KT P6SM SCT150=



000
FTUS43 KUNR 260500
TAFGCC
TAF
KGCC 260520Z 2606/2706 17016KT P6SM BKN150
     FM260800 22015KT P6SM SCT150
     FM261500 30015KT P6SM BKN150=



000
FTUS43 KUNR 260500
TAFRAP
TAF
KRAP 260520Z 2606/2706 15010KT P6SM SCT150
     FM261500 34015KT P6SM SCT150=



000
FTUS43 KUNR 252300
TAFGCC
TAF
KGCC 252320Z 2600/2624 15010KT P6SM SKC
     FM260500 21015KT P6SM SCT150
     FM261500 30015KT P6SM BKN150=



000
FTUS43 KUNR 252300
TAFRAP
TAF
KRAP 252320Z 2600/2624 16014KT P6SM SKC
     FM261500 34015KT P6SM SCT150=



000
FTUS43 KUNR 251700
TAFRAP
TAF
KRAP 251720Z 2518/2618 17016KT P6SM SKC
     FM260000 13008KT P6SM SKC
     FM260600 17005KT P6SM SKC
     FM261500 31008KT P6SM SCT250
     FM261700 34015KT P6SM SCT250=



000
FTUS43 KUNR 251700
TAFGCC
TAF
KGCC 251720Z 2518/2618 17014G24KT P6SM SKC
     FM260000 17010KT P6SM SKC
     FM260500 21015KT P6SM SKC
     FM261500 27007KT P6SM SCT250=



000
FTUS43 KUNR 251700
TAFRAP
TAF
KRAP 251720Z 2518/2618 17016KT P6SM SKC
     FM260000 13008KT P6SM SKC
     FM260600 17005KT P6SM SKC
     FM261500 31008KT P6SM SCT250
     FM261700 34015KT P6SM SCT250=



000
FTUS43 KUNR 251700
TAFGCC
TAF
KGCC 251720Z 2518/2618 17014G24KT P6SM SKC
     FM260000 17010KT P6SM SKC
     FM260500 21015KT P6SM SKC
     FM261500 27007KT P6SM SCT250=



000
FTUS43 KUNR 251700 AAA
TAFRAP
TAF AMD
KRAP 251701Z 2517/2612 17017KT P6SM SKC
     FM260000 VRB04KT P6SM SKC=



000
FTUS43 KUNR 251700 AAA
TAFRAP
TAF AMD
KRAP 251701Z 2517/2612 17017KT P6SM SKC
     FM260000 VRB04KT P6SM SKC=



000
FTUS43 KUNR 251100
TAFGCC
TAF
KGCC 251128Z 2512/2612 VRB04KT P6SM SKC
     FM251600 18015KT P6SM SKC=



000
FTUS43 KUNR 251100
TAFRAP
TAF
KRAP 251128Z 2512/2612 VRB04KT P6SM SKC
     FM251600 15014KT P6SM SKC
     FM260000 VRB04KT P6SM SKC=



000
FTUS43 KUNR 251100
TAFGCC
TAF
KGCC 251128Z 2512/2612 VRB04KT P6SM SKC
     FM251600 18015KT P6SM SKC=



000
FTUS43 KUNR 251100
TAFRAP
TAF
KRAP 251128Z 2512/2612 VRB04KT P6SM SKC
     FM251600 15014KT P6SM SKC
     FM260000 VRB04KT P6SM SKC=



000
FTUS43 KUNR 250500
TAFRAP
TAF
KRAP 250520Z 2506/2606 VRB04KT P6SM FEW110
     FM251600 15012KT P6SM SCT250=



000
FTUS43 KUNR 250500
TAFGCC
TAF
KGCC 250520Z 2506/2606 VRB05KT P6SM SKC
     FM251100 17015KT P6SM SCT250=



000
FTUS43 KUNR 250400 CCA
TAFRAP
TAF COR
KRAP 250409Z 2504/2524 01008KT P6SM SKC
     FM251000 VRB04KT P6SM SKC
     FM251600 13009KT P6SM SCT250=



000
FTUS43 KUNR 250400 CCA
TAFGCC
TAF COR
KGCC 250409Z 2504/2524 04007KT P6SM SKC
     FM250900 17009KT P6SM SKC=



000
FTUS43 KUNR 250400 CCA
TAFGCC
TAF COR
KGCC 250409Z 2504/2524 04007KT P6SM SKC
     FM250900 17009KT P6SM SKC=



000
FTUS43 KUNR 250400 CCA
TAFRAP
TAF COR
KRAP 250409Z 2504/2524 01008KT P6SM SKC
     FM251000 VRB04KT P6SM SKC
     FM251600 13009KT P6SM SCT250=



000
FTUS43 KUNR 250400 RRA
TAFGCC
TAF
KGCC 250408Z 2504/2524 04007KT P6SM SKC
     FM250900 17009KT P6SM SKC=



000
FTUS43 KUNR 250400 RRA
TAFRAP
TAF
KRAP 250408Z 2504/2524 01008KT P6SM SKC
     FM251000 VRB04KT P6SM SKC
     FM251600 13009KT P6SM SCT250=



000
FTUS43 KUNR 250400 RRA
TAFGCC
TAF
KGCC 250408Z 2504/2524 04007KT P6SM SKC
     FM250900 17009KT P6SM SKC=



000
FTUS43 KUNR 250400 RRA
TAFRAP
TAF
KRAP 250408Z 2504/2524 01008KT P6SM SKC
     FM251000 VRB04KT P6SM SKC
     FM251600 13009KT P6SM SCT250=



000
FTUS43 KUNR 241700
TAFRAP
TAF
KRAP 241720Z 2418/2518 35015KT P6SM SCT250
     FM250100 02006KT P6SM SCT250
     FM251200 08004KT P6SM SKC
     FM251600 13006KT P6SM SKC=



000
FTUS43 KUNR 241700
TAFGCC
TAF
KGCC 241720Z 2418/2518 02007KT P6SM SCT250
     FM250200 13005KT P6SM SKC
     FM250900 17009KT P6SM SKC=



000
FTUS43 KUNR 241100
TAFGCC
TAF
KGCC 241120Z 2412/2512 24009KT P6SM BKN250=



000
FTUS43 KUNR 241100
TAFRAP
TAF
KRAP 241120Z 2412/2512 VRB05KT P6SM BKN250=



000
FTUS43 KUNR 240500
TAFRAP
TAF
KRAP 240520Z 2406/2506 VRB05KT P6SM BKN250=



000
FTUS43 KUNR 240500
TAFGCC
TAF
KGCC 240520Z 2406/2506 VRB05KT P6SM BKN250=



000
FTUS43 KUNR 232300
TAFGCC
TAF
KGCC 232320Z 2400/2424 26009KT P6SM BKN250=



000
FTUS43 KUNR 232300
TAFRAP
TAF
KRAP 232320Z 2400/2424 34007KT P6SM BKN250=



000
FTUS43 KUNR 231700
TAFGCC
TAF
KGCC 231720Z 2318/2418 23015KT P6SM BKN250
     FM240100 20009KT P6SM BKN250=



000
FTUS43 KUNR 231700
TAFRAP
TAF
KRAP 231720Z 2318/2418 15006KT P6SM SCT250
     FM232100 12010KT P6SM SCT250
     FM240300 32004KT P6SM SCT250=



000
FTUS43 KUNR 231600 AAA
TAFGCC
TAF AMD
KGCC 231608Z 2316/2412 21013G32KT P6SM BKN250=



000
FTUS43 KUNR 231100
TAFRAP
TAF
KRAP 231120Z 2312/2412 VRB04KT P6SM SCT250=



000
FTUS43 KUNR 231100
TAFGCC
TAF
KGCC 231120Z 2312/2412 21010KT P6SM SCT250=



    US Dept of Commerce
    National Oceanic and Atmospheric Administration
    National Weather Service
    1325 East West Highway
    Silver Spring, MD 20910
    Page Author: NWS Internet Services Team
Disclaimer
Information Quality
Credits
Glossary
Privacy Policy
Freedom of Information Act (FOIA)
About Us
Career Opportunities